Time;durP1;ratioP1;P1;durP2;ratioP2;P2;SDS_P1;SDS_P2;PMS_P1;PMS_P2;Temp;Humidity;BMP_temperature;BMP_pressure;BME280_temperature;BME280_humidity;BME280_pressure;Samples;Min_cycle;Max_cycle;Signal;HPM_P1;HPM_P2
2023/09/30 00:00:14;;;;;;;16.15;10.35;;;;;;;10.72;100.00;102495.00;5031861;28;20025;-77
2023/09/30 00:02:40;;;;;;;17.20;10.73;;;;;;;10.74;100.00;102492.44;5017436;28;20053;-78
2023/09/30 00:05:06;;;;;;;15.68;10.15;;;;;;;10.76;100.00;102490.69;5031195;28;20025;-78
2023/09/30 00:07:31;;;;;;;18.85;11.57;;;;;;;10.82;100.00;102497.66;5047469;28;20028;-78
2023/09/30 00:09:56;;;;;;;22.33;11.68;;;;;;;10.84;100.00;102490.72;5019981;28;20029;-78
2023/09/30 00:12:22;;;;;;;16.38;10.75;;;;;;;10.85;100.00;102495.91;5019141;28;20018;-78
2023/09/30 00:14:48;;;;;;;19.63;11.95;;;;;;;10.83;100.00;102495.06;5022845;28;20034;-78
2023/09/30 00:17:14;;;;;;;22.20;11.80;;;;;;;10.86;100.00;102491.59;5015936;28;20021;-78
2023/09/30 00:19:39;;;;;;;18.30;11.13;;;;;;;10.88;100.00;102502.88;5025368;28;20037;-78
2023/09/30 00:22:05;;;;;;;19.88;11.27;;;;;;;10.92;100.00;102502.91;5015123;28;20556;-78
2023/09/30 00:24:30;;;;;;;20.00;11.65;;;;;;;10.89;100.00;102502.91;5014799;28;20025;-78
2023/09/30 00:26:56;;;;;;;17.58;11.10;;;;;;;10.92;100.00;102505.53;5020080;28;20057;-78
2023/09/30 00:29:21;;;;;;;20.35;11.98;;;;;;;10.93;100.00;102495.94;5026154;28;20030;-78
2023/09/30 00:31:47;;;;;;;21.77;11.60;;;;;;;10.92;100.00;102481.13;5040798;28;20024;-78
2023/09/30 00:34:13;;;;;;;21.42;11.90;;;;;;;10.94;100.00;102482.88;5024906;28;20469;-78
2023/09/30 00:36:38;;;;;;;21.65;12.00;;;;;;;10.95;100.00;102497.69;5021970;28;20037;-78
2023/09/30 00:39:04;;;;;;;17.67;12.05;;;;;;;10.94;100.00;102513.34;5024146;28;20022;-78
2023/09/30 00:41:29;;;;;;;20.05;12.18;;;;;;;10.89;100.00;102523.78;5035230;28;20040;-78
2023/09/30 00:43:54;;;;;;;21.20;12.68;;;;;;;10.88;100.00;102518.53;5023947;28;20075;-77
2023/09/30 00:46:31;;;;;;;19.67;12.23;;;;;;;10.87;100.00;102515.06;5024843;28;20026;-78
2023/09/30 00:48:58;;;;;;;18.15;12.13;;;;;;;10.87;100.00;102511.59;5039681;28;20495;-78
2023/09/30 00:51:24;;;;;;;19.15;12.77;;;;;;;10.85;100.00;102501.13;5020241;28;20022;-78
2023/09/30 00:53:51;;;;;;;17.65;11.68;;;;;;;10.85;100.00;102501.13;5008029;28;20128;-78
2023/09/30 00:56:18;;;;;;;19.30;12.77;;;;;;;10.85;100.00;102500.25;5015971;28;20026;-77
2023/09/30 00:58:46;;;;;;;19.20;12.73;;;;;;;10.81;100.00;102507.22;5028812;28;20116;-78
2023/09/30 01:01:11;;;;;;;19.98;12.05;;;;;;;10.83;100.00;102517.69;5011957;28;20448;-77
2023/09/30 01:03:38;;;;;;;16.83;12.38;;;;;;;10.83;100.00;102522.91;5022815;28;20049;-78
2023/09/30 01:06:03;;;;;;;18.45;11.48;;;;;;;10.76;100.00;102515.03;5029261;28;20049;-78
2023/09/30 01:08:29;;;;;;;19.50;12.40;;;;;;;10.73;100.00;102516.78;5046783;28;20098;-78
2023/09/30 01:10:55;;;;;;;22.25;12.15;;;;;;;10.70;100.00;102508.94;5031609;28;20082;-77
2023/09/30 01:13:20;;;;;;;18.48;12.10;;;;;;;10.68;100.00;102516.75;5017779;28;20460;-77
2023/09/30 01:15:47;;;;;;;20.92;12.10;;;;;;;10.62;100.00;102518.47;5023793;28;20106;-78
2023/09/30 01:18:12;;;;;;;21.85;12.88;;;;;;;10.61;100.00;102521.94;5041409;28;20107;-78
2023/09/30 01:20:37;;;;;;;18.85;12.25;;;;;;;10.52;100.00;102526.25;5020863;28;20040;-77
2023/09/30 01:23:03;;;;;;;18.75;11.95;;;;;;;10.48;100.00;102537.56;5019759;28;20516;-77
2023/09/30 01:25:29;;;;;;;20.23;11.45;;;;;;;10.46;100.00;102548.84;5019887;28;20053;-78
2023/09/30 01:27:54;;;;;;;21.30;12.52;;;;;;;10.42;100.00;102554.91;5040399;28;20469;-77
2023/09/30 01:30:22;;;;;;;18.25;12.63;;;;;;;10.39;100.00;102557.50;5025582;28;20034;-77
2023/09/30 01:32:48;;;;;;;20.33;12.00;;;;;;;10.32;100.00;102559.19;5041974;28;20097;-77
2023/09/30 01:35:13;;;;;;;22.45;12.98;;;;;;;10.27;100.00;102543.56;5025174;28;20110;-77
2023/09/30 01:37:39;;;;;;;20.42;13.10;;;;;;;10.26;100.00;102554.81;5042470;28;20033;-77
2023/09/30 01:40:08;;;;;;;20.83;13.27;;;;;;;10.25;100.00;102554.78;5027388;28;20033;-78
2023/09/30 01:42:33;;;;;;;21.90;12.85;;;;;;;10.21;100.00;102543.47;5043038;28;20022;-77
2023/09/30 01:44:58;;;;;;;23.38;13.73;;;;;;;10.21;100.00;102537.41;5032084;28;20033;-77
2023/09/30 01:47:24;;;;;;;23.17;13.43;;;;;;;10.17;100.00;102528.69;5045817;28;20065;-77
2023/09/30 01:49:49;;;;;;;22.38;14.40;;;;;;;10.13;100.00;102516.50;5028975;28;20086;-78
2023/09/30 01:52:14;;;;;;;27.48;14.60;;;;;;;10.13;100.00;102533.88;5017618;28;20053;-78
2023/09/30 01:54:40;;;;;;;25.33;14.80;;;;;;;10.11;100.00;102530.41;5031445;28;20022;-77
2023/09/30 01:57:05;;;;;;;24.75;14.63;;;;;;;10.08;100.00;102534.72;5049435;28;20020;-78
2023/09/30 01:59:31;;;;;;;23.52;14.23;;;;;;;10.06;100.00;102540.78;5030738;28;20476;-77
2023/09/30 02:01:56;;;;;;;24.70;14.32;;;;;;;10.07;100.00;102540.81;5043537;28;20056;-78
2023/09/30 02:04:21;;;;;;;24.88;13.98;;;;;;;10.03;100.00;102539.03;5039801;28;20423;-77
2023/09/30 02:06:47;;;;;;;21.48;14.45;;;;;;;10.02;100.00;102531.22;5033784;28;20033;-77
2023/09/30 02:09:12;;;;;;;22.42;13.93;;;;;;;10.09;100.00;102536.47;5052842;28;20028;-77
2023/09/30 02:11:38;;;;;;;22.23;13.85;;;;;;;10.09;100.00;102541.66;5018554;28;20477;-77
2023/09/30 02:14:05;;;;;;;27.67;14.45;;;;;;;10.10;100.00;102552.97;5025555;28;20052;-77
2023/09/30 02:16:31;;;;;;;22.77;13.95;;;;;;;10.09;100.00;102548.63;5042281;28;20434;-78
2023/09/30 02:18:56;;;;;;;20.60;13.57;;;;;;;10.09;100.00;102551.22;5025333;28;20058;-77
2023/09/30 02:21:22;;;;;;;26.30;14.80;;;;;;;10.11;100.00;102543.44;5008211;28;20032;-77
2023/09/30 02:23:48;;;;;;;25.80;14.80;;;;;;;10.09;100.00;102552.09;5018435;28;20030;-77
2023/09/30 02:26:17;;;;;;;21.55;13.68;;;;;;;10.06;100.00;102553.81;5021609;28;20085;-78
2023/09/30 02:28:42;;;;;;;24.73;14.30;;;;;;;9.99;100.00;102536.41;5043811;28;20040;-77
2023/09/30 02:31:07;;;;;;;27.70;14.45;;;;;;;9.98;100.00;102532.06;5017462;28;20462;-77
2023/09/30 02:33:35;;;;;;;22.65;13.98;;;;;;;9.99;100.00;102532.06;5045602;28;20441;-78
2023/09/30 02:36:01;;;;;;;23.58;14.45;;;;;;;9.98;100.00;102537.28;5021667;28;20022;-77
2023/09/30 02:38:26;;;;;;;24.83;14.05;;;;;;;9.92;100.00;102530.28;5037462;28;20052;-77
2023/09/30 02:40:51;;;;;;;23.98;14.07;;;;;;;9.95;100.00;102551.16;5029831;28;20113;-77
2023/09/30 02:43:17;;;;;;;29.63;15.48;;;;;;;9.93;100.00;102545.03;5019902;28;20026;-77
2023/09/30 02:45:43;;;;;;;25.55;14.18;;;;;;;9.89;100.00;102540.69;5049492;28;20047;-77
2023/09/30 02:48:09;;;;;;;25.33;14.48;;;;;;;9.89;100.00;102527.66;5025121;28;20469;-77
2023/09/30 02:50:34;;;;;;;27.45;14.35;;;;;;;9.91;100.00;102528.56;5039310;28;20113;-77
2023/09/30 02:52:59;;;;;;;24.70;14.13;;;;;;;9.90;100.00;102531.13;5022745;28;20033;-77
2023/09/30 02:55:25;;;;;;;23.42;14.13;;;;;;;9.91;100.00;102527.66;5046386;28;20041;-77
2023/09/30 02:57:50;;;;;;;25.27;14.77;;;;;;;9.86;100.00;102530.25;5028951;28;20105;-78
2023/09/30 03:00:25;;;;;;;28.00;14.73;;;;;;;9.87;100.00;102526.75;5022008;28;20033;-77
2023/09/30 03:02:55;;;;;;;22.05;14.15;;;;;;;9.85;100.00;102533.72;5034984;28;20026;-77
2023/09/30 03:05:22;;;;;;;27.15;13.82;;;;;;;9.85;100.00;102541.53;5050933;28;20070;-77
2023/09/30 03:07:48;;;;;;;23.70;14.52;;;;;;;9.84;100.00;102548.47;5035676;28;20145;-77
2023/09/30 03:10:19;;;;;;;28.05;15.52;;;;;;;9.88;100.00;102551.13;5051075;28;20124;-78
2023/09/30 03:12:45;;;;;;;27.38;15.38;;;;;;;9.89;100.00;102543.28;5036764;28;20450;-77
2023/09/30 03:15:10;;;;;;;25.25;15.98;;;;;;;9.94;100.00;102544.22;5011704;28;20112;-77
2023/09/30 03:17:37;;;;;;;27.90;16.20;;;;;;;9.97;100.00;102539.03;5021454;28;20034;-78
2023/09/30 03:20:09;;;;;;;28.65;16.13;;;;;;;9.96;100.00;102552.88;5017336;28;20632;-78
2023/09/30 03:22:34;;;;;;;29.55;16.13;;;;;;;9.96;100.00;102542.47;5023727;28;20108;-77
2023/09/30 03:25:00;;;;;;;24.80;15.75;;;;;;;9.97;100.00;102528.59;5020949;28;20505;-78
2023/09/30 03:27:25;;;;;;;30.33;15.95;;;;;;;10.02;100.00;102526.00;5038745;28;20056;-78
2023/09/30 03:29:51;;;;;;;31.40;17.58;;;;;;;10.02;100.00;102520.78;5024630;28;20501;-78
2023/09/30 03:32:16;;;;;;;28.55;16.80;;;;;;;10.04;100.00;102514.72;5038324;28;20026;-78
2023/09/30 03:34:44;;;;;;;29.60;17.02;;;;;;;10.02;100.00;102518.19;5011965;28;20025;-78
2023/09/30 03:37:10;;;;;;;28.83;16.45;;;;;;;10.02;100.00;102516.44;5024640;28;20802;-78
2023/09/30 03:39:35;;;;;;;29.30;16.05;;;;;;;9.98;100.00;102519.03;5031558;28;20037;-77
2023/09/30 03:42:01;;;;;;;27.02;16.48;;;;;;;9.95;100.00;102519.88;5046290;28;20081;-77
2023/09/30 03:44:26;;;;;;;32.60;17.05;;;;;;;9.89;100.00;102519.84;5030782;28;20033;-77
2023/09/30 03:46:52;;;;;;;31.38;17.63;;;;;;;9.85;100.00;102521.56;5048624;28;20077;-78
2023/09/30 03:49:19;;;;;;;30.73;17.20;;;;;;;9.85;100.00;102534.59;5029901;28;20018;-78
2023/09/30 03:51:45;;;;;;;33.53;17.05;;;;;;;9.82;100.00;102538.91;5035895;28;20031;-78
2023/09/30 03:54:11;;;;;;;34.65;18.70;;;;;;;9.80;100.00;102532.81;5040208;28;20036;-78
2023/09/30 03:56:38;;;;;;;29.00;17.27;;;;;;;9.80;100.00;102525.00;5031408;28;20033;-78
2023/09/30 03:59:03;;;;;;;32.35;17.52;;;;;;;9.76;100.00;102512.81;5050212;28;20118;-78
2023/09/30 04:01:29;;;;;;;35.30;17.65;;;;;;;9.78;100.00;102522.38;5026347;28;20174;-77
2023/09/30 04:03:55;;;;;;;30.58;17.48;;;;;;;9.80;100.00;102523.25;5058711;28;20105;-77
2023/09/30 04:06:20;;;;;;;33.28;17.55;;;;;;;9.78;100.00;102524.13;5020429;28;20466;-77
2023/09/30 04:08:46;;;;;;;32.00;17.80;;;;;;;9.79;100.00;102533.69;5028680;28;20044;-78
2023/09/30 04:11:17;;;;;;;33.55;18.50;;;;;;;9.79;100.00;102528.47;5030902;28;20420;-77
2023/09/30 04:13:43;;;;;;;34.05;17.63;;;;;;;9.78;100.00;102526.72;5050756;28;20049;-78
2023/09/30 04:16:08;;;;;;;34.45;17.40;;;;;;;9.76;100.00;102529.31;5033416;28;20060;-78
2023/09/30 04:18:34;;;;;;;31.13;16.95;;;;;;;9.78;100.00;102529.34;5022132;28;20033;-77
2023/09/30 04:20:59;;;;;;;32.20;17.10;;;;;;;9.75;100.00;102529.31;5035883;28;20037;-77
2023/09/30 04:23:25;;;;;;;33.30;17.10;;;;;;;9.71;100.00;102520.63;5019409;28;20026;-77
2023/09/30 04:25:50;;;;;;;33.65;17.83;;;;;;;9.68;100.00;102525.78;5021056;28;20042;-77
2023/09/30 04:28:20;;;;;;;35.53;18.98;;;;;;;9.64;100.00;102516.19;5020391;28;20033;-77
2023/09/30 04:30:47;;;;;;;33.85;17.63;;;;;;;9.64;100.00;102523.13;5021768;28;20453;-77
2023/09/30 04:33:13;;;;;;;34.65;16.30;;;;;;;9.65;100.00;102523.16;5049440;28;20026;-77
2023/09/30 04:35:38;;;;;;;38.38;18.23;;;;;;;9.64;100.00;102528.34;5024382;28;20457;-77
2023/09/30 04:38:04;;;;;;;38.40;18.17;;;;;;;9.61;100.00;102530.09;5044574;28;20134;-77
2023/09/30 04:40:30;;;;;;;34.72;17.08;;;;;;;9.63;100.00;102537.03;5030184;28;20366;-77
2023/09/30 04:42:58;;;;;;;34.70;18.00;;;;;;;9.60;100.00;102533.53;5020760;28;20074;-78
2023/09/30 04:45:25;;;;;;;35.92;18.65;;;;;;;9.61;100.00;102540.50;5030798;28;20385;-78
2023/09/30 04:47:56;;;;;;;32.95;17.33;;;;;;;9.59;100.00;102542.22;5047270;28;20104;-77
2023/09/30 04:50:21;;;;;;;32.05;16.92;;;;;;;9.54;100.00;102535.22;5032362;28;20366;-77
2023/09/30 04:52:48;;;;;;;32.55;17.02;;;;;;;9.52;100.00;102530.00;5046998;28;20032;-77
2023/09/30 04:55:15;;;;;;;30.33;16.83;;;;;;;9.52;100.00;102530.00;5033252;28;20026;-77
2023/09/30 04:57:44;;;;;;;33.05;16.80;;;;;;;9.53;100.00;102547.38;5046914;28;20034;-78
2023/09/30 05:00:11;;;;;;;35.67;18.05;;;;;;;9.54;100.00;102553.44;5016564;28;20086;-77
2023/09/30 05:02:36;;;;;;;37.55;17.73;;;;;;;9.52;100.00;102556.06;5049138;28;20018;-78
2023/09/30 05:05:02;;;;;;;33.70;17.52;;;;;;;9.54;100.00;102562.13;5034819;28;20026;-77
2023/09/30 05:07:28;;;;;;;31.98;17.27;;;;;;;9.46;100.00;102560.34;5051154;28;20032;-77
2023/09/30 05:09:54;;;;;;;31.30;16.65;;;;;;;9.46;100.00;102557.72;5034138;28;20033;-77
2023/09/30 05:12:20;;;;;;;33.67;16.70;;;;;;;9.47;100.00;102552.53;5020746;28;20037;-77
2023/09/30 05:14:45;;;;;;;39.05;17.98;;;;;;;9.44;100.00;102559.44;5034049;28;20037;-77
2023/09/30 05:17:12;;;;;;;34.00;17.00;;;;;;;9.44;100.00;102568.13;5018032;28;20025;-77
2023/09/30 05:19:37;;;;;;;31.70;16.48;;;;;;;9.40;100.00;102561.16;5040691;28;20899;-77
2023/09/30 05:22:03;;;;;;;32.63;17.45;;;;;;;9.40;100.00;102557.69;5051727;28;20017;-77
2023/09/30 05:24:29;;;;;;;32.15;16.52;;;;;;;9.35;100.00;102563.72;5053211;28;20022;-78
2023/09/30 05:26:54;;;;;;;31.00;15.82;;;;;;;9.32;100.00;102560.22;5061735;28;20083;-77
2023/09/30 05:29:20;;;;;;;32.45;17.15;;;;;;;9.31;100.00;102568.88;5047832;28;20029;-77
2023/09/30 05:31:46;;;;;;;31.17;17.00;;;;;;;9.30;100.00;102572.34;5055261;28;20031;-78
2023/09/30 05:34:11;;;;;;;32.75;17.13;;;;;;;9.28;100.00;102576.63;5054061;28;20028;-77
2023/09/30 05:36:36;;;;;;;32.55;17.17;;;;;;;9.26;100.00;102573.16;5044632;28;20038;-77
2023/09/30 05:39:03;;;;;;;33.03;17.55;;;;;;;9.21;100.00;102567.03;5044827;28;20104;-77
2023/09/30 05:41:29;;;;;;;32.58;16.48;;;;;;;9.23;100.00;102565.34;5032123;28;20029;-77
2023/09/30 05:43:55;;;;;;;32.38;17.23;;;;;;;9.27;100.00;102567.97;5046252;28;20473;-78
2023/09/30 05:46:21;;;;;;;30.45;17.50;;;;;;;9.25;100.00;102568.81;5033093;28;20026;-78
2023/09/30 05:48:46;;;;;;;31.77;16.50;;;;;;;9.30;100.00;102586.22;5043910;28;20429;-78
2023/09/30 05:51:14;;;;;;;32.10;17.67;;;;;;;9.34;100.00;102581.91;5031693;28;20022;-78
2023/09/30 05:53:41;;;;;;;35.30;18.08;;;;;;;9.41;100.00;102578.50;5050832;28;20066;-77
2023/09/30 05:56:07;;;;;;;34.88;17.83;;;;;;;9.47;100.00;102577.69;5030989;28;20427;-78
2023/09/30 05:58:32;;;;;;;38.10;18.10;;;;;;;9.53;100.00;102586.44;5042742;28;20031;-77
2023/09/30 06:00:57;;;;;;;40.15;19.08;;;;;;;9.58;100.00;102589.97;5025422;28;20528;-77
2023/09/30 06:03:23;;;;;;;36.25;18.65;;;;;;;9.65;100.00;102590.00;5031973;28;20038;-78
2023/09/30 06:05:48;;;;;;;37.70;18.70;;;;;;;9.70;100.00;102585.69;5049498;28;20064;-78
2023/09/30 06:08:14;;;;;;;47.67;20.58;;;;;;;9.77;100.00;102582.28;5026857;28;20117;-77
2023/09/30 06:10:43;;;;;;;39.47;19.73;;;;;;;9.82;100.00;102585.78;5050036;28;20408;-78
2023/09/30 06:13:09;;;;;;;37.95;19.13;;;;;;;9.82;100.00;102576.25;5020119;28;20029;-77
2023/09/30 06:15:40;;;;;;;48.63;20.30;;;;;;;9.87;100.00;102581.47;5054346;28;20045;-77
2023/09/30 06:18:06;;;;;;;45.40;20.30;;;;;;;9.89;100.00;102581.50;5009245;28;20025;-77
2023/09/30 06:20:33;;;;;;;40.80;19.55;;;;;;;9.89;100.00;102577.16;5016552;28;20367;-77
2023/09/30 06:23:00;;;;;;;51.58;20.98;;;;;;;9.92;100.00;102582.38;5001344;28;20041;-78
2023/09/30 06:25:27;;;;;;;40.35;19.65;;;;;;;9.93;100.00;102578.06;5017241;28;20046;-78
2023/09/30 06:27:57;;;;;;;47.47;21.08;;;;;;;9.97;100.00;102579.81;5022509;28;20047;-76
2023/09/30 06:30:29;;;;;;;49.47;21.98;;;;;;;10.07;100.00;102585.09;5015664;28;20053;-78
2023/09/30 06:32:55;;;;;;;49.97;21.85;;;;;;;10.15;100.00;102582.53;5031320;28;20056;-77
2023/09/30 06:35:21;;;;;;;52.05;22.17;;;;;;;10.21;100.00;102573.91;5044096;28;20097;-78
2023/09/30 06:37:47;;;;;;;55.47;23.27;;;;;;;10.27;100.00;102574.84;5026146;28;20036;-78
2023/09/30 06:40:12;;;;;;;48.65;21.38;;;;;;;10.31;100.00;102573.13;5042828;28;20029;-78
2023/09/30 06:42:39;;;;;;;51.85;23.20;;;;;;;10.34;100.00;102575.75;5024811;28;20026;-77
2023/09/30 06:45:06;;;;;;;50.15;23.38;;;;;;;10.39;100.00;102576.63;5050722;28;20077;-78
2023/09/30 06:47:35;;;;;;;52.42;23.80;;;;;;;10.43;100.00;102578.41;5017730;28;20113;-78
2023/09/30 06:50:07;;;;;;;58.60;24.15;;;;;;;10.57;100.00;102588.00;5022859;28;20455;-78
2023/09/30 06:52:37;;;;;;;51.80;23.08;;;;;;;10.68;100.00;102592.41;5020712;28;20048;-78
2023/09/30 06:55:04;;;;;;;50.95;23.52;;;;;;;10.73;100.00;102597.66;5023925;28;20049;-78
2023/09/30 06:57:31;;;;;;;62.10;24.35;;;;;;;10.85;100.00;102609.84;5029516;28;20033;-78
2023/09/30 06:59:56;;;;;;;58.85;24.83;;;;;;;10.93;100.00;102610.75;5048791;28;20099;-78
2023/09/30 07:02:21;;;;;;;57.08;24.08;;;;;;;10.98;100.00;102617.72;5034906;28;20033;-78
2023/09/30 07:04:47;;;;;;;52.20;22.80;;;;;;;10.97;100.00;102613.38;5048871;28;20074;-78
2023/09/30 07:07:12;;;;;;;48.53;22.10;;;;;;;11.04;100.00;102623.84;5020280;28;20397;-78
2023/09/30 07:09:37;;;;;;;45.10;22.08;;;;;;;11.10;100.00;102629.06;5030809;28;20033;-77
2023/09/30 07:12:04;;;;;;;49.95;22.17;;;;;;;11.16;100.00;102632.56;5027158;28;20108;-78
2023/09/30 07:14:29;;;;;;;49.15;22.77;;;;;;;11.23;100.00;102633.47;5047760;28;20026;-78
2023/09/30 07:16:54;;;;;;;52.80;21.35;;;;;;;11.30;100.00;102629.13;5008600;28;20029;-78
2023/09/30 07:19:20;;;;;;;50.03;23.23;;;;;;;11.35;100.00;102627.41;5016868;28;20041;-78
2023/09/30 07:21:46;;;;;;;51.17;22.45;;;;;;;11.38;100.00;102620.44;5015370;28;20034;-77
2023/09/30 07:24:11;;;;;;;50.38;21.65;;;;;;;11.45;100.00;102643.09;5016505;28;20030;-78
2023/09/30 07:26:37;;;;;;;52.15;22.00;;;;;;;11.49;100.00;102650.03;5032479;28;20401;-78
2023/09/30 07:29:04;;;;;;;52.20;22.00;;;;;;;11.53;100.00;102657.88;5008459;28;20049;-79
2023/09/30 07:31:34;;;;;;;49.83;21.83;;;;;;;11.56;100.00;102669.22;5020125;28;20037;-79
2023/09/30 07:34:00;;;;;;;52.20;21.63;;;;;;;11.63;100.00;102681.41;5034088;28;20178;-90
2023/09/30 07:36:25;;;;;;;44.88;20.50;;;;;;;11.68;100.00;102684.03;5010824;28;20033;-78
2023/09/30 07:38:50;;;;;;;46.33;21.20;;;;;;;11.71;100.00;102690.13;5016167;28;20381;-78
2023/09/30 07:41:17;;;;;;;46.85;21.13;;;;;;;11.81;100.00;102691.03;5015016;28;20082;-78
2023/09/30 07:43:43;;;;;;;41.00;18.90;;;;;;;11.95;100.00;102697.16;5019767;28;20073;-78
2023/09/30 07:46:08;;;;;;;51.28;21.77;;;;;;;12.23;100.00;102681.47;5030660;28;20508;-78
2023/09/30 07:48:34;;;;;;;48.70;22.42;;;;;;;12.41;100.00;102676.19;5021375;28;20030;-78
2023/09/30 07:51:00;;;;;;;49.53;23.25;;;;;;;12.57;100.00;102674.41;5028828;28;20030;-78
2023/09/30 07:53:25;;;;;;;53.15;23.95;;;;;;;12.72;100.00;102670.91;5022668;28;20166;-78
2023/09/30 07:55:51;;;;;;;39.33;19.60;;;;;;;12.91;100.00;102668.19;5006211;28;20029;-78
2023/09/30 07:58:16;;;;;;;41.00;19.55;;;;;;;13.05;100.00;102666.41;5029896;28;20061;-78
2023/09/30 08:00:41;;;;;;;36.00;18.33;;;;;;;13.19;100.00;102664.59;5030323;28;20097;-78
2023/09/30 08:03:07;;;;;;;32.33;16.90;;;;;;;13.26;100.00;102668.06;5024173;28;20026;-78
2023/09/30 08:05:32;;;;;;;32.78;17.90;;;;;;;13.47;100.00;102677.53;5019755;28;20053;-79
2023/09/30 08:07:57;;;;;;;30.75;15.90;;;;;;;13.64;100.00;102661.72;5011234;28;20018;-78
2023/09/30 08:10:23;;;;;;;30.90;16.63;;;;;;;13.71;100.00;102659.03;5038715;28;20030;-77
2023/09/30 08:12:49;;;;;;;30.48;16.77;;;;;;;13.86;100.00;102660.66;5010966;28;20082;-78
2023/09/30 08:15:18;;;;;;;33.53;16.10;;;;;;;14.00;100.00;102653.56;5008740;28;20026;-78
2023/09/30 08:17:43;;;;;;;34.08;15.85;;;;;;;14.02;100.00;102657.03;5018769;28;20514;-78
2023/09/30 08:20:09;;;;;;;31.98;15.48;;;;;;;14.04;100.00;102646.53;5046812;28;20433;-78
2023/09/30 08:22:35;;;;;;;26.73;15.88;;;;;;;13.96;100.00;102651.84;5008981;28;20470;-77
2023/09/30 08:25:00;;;;;;;28.23;14.20;;;;;;;14.01;100.00;102651.81;5018396;28;20045;-77
2023/09/30 08:27:26;;;;;;;25.77;13.32;;;;;;;13.98;100.00;102651.81;5008060;28;20060;-78
2023/09/30 08:29:53;;;;;;;30.45;14.20;;;;;;;14.00;100.00;102644.81;5017856;28;20133;-79
2023/09/30 08:32:18;;;;;;;28.67;15.10;;;;;;;13.97;100.00;102640.47;5017554;28;20117;-77
2023/09/30 08:34:43;;;;;;;28.38;14.20;;;;;;;13.96;100.00;102649.22;5043584;28;20033;-77
2023/09/30 08:37:09;;;;;;;22.33;13.50;;;;;;;13.92;100.00;102642.25;5026244;28;20390;-77
2023/09/30 08:39:40;;;;;;;29.92;14.35;;;;;;;13.92;100.00;102652.75;5039739;28;20044;-78
2023/09/30 08:42:10;;;;;;;25.92;13.57;;;;;;;13.95;100.00;102646.59;5016156;28;20070;-77
2023/09/30 08:44:38;;;;;;;24.33;14.45;;;;;;;13.97;100.00;102635.22;5013800;28;20460;-78
2023/09/30 08:47:04;;;;;;;28.17;13.55;;;;;;;14.03;100.00;102632.56;5017739;28;20033;-77
2023/09/30 08:49:32;;;;;;;28.58;12.68;;;;;;;14.04;100.00;102629.03;5045877;28;20108;-78
2023/09/30 08:51:58;;;;;;;23.25;12.60;;;;;;;14.10;100.00;102630.75;5015977;28;20034;-77
2023/09/30 08:54:25;;;;;;;25.15;13.35;;;;;;;14.12;100.00;102628.94;5024819;28;20466;-77
2023/09/30 08:56:50;;;;;;;23.38;13.35;;;;;;;14.24;100.00;102630.59;5030239;28;20040;-77
2023/09/30 08:59:16;;;;;;;27.58;12.82;;;;;;;14.32;100.00;102631.38;5013033;28;20026;-79
2023/09/30 09:01:41;;;;;;;24.40;12.77;;;;;;;14.46;100.00;102615.50;5016604;28;20029;-78
2023/09/30 09:04:07;;;;;;;24.17;12.52;;;;;;;14.61;100.00;102624.97;5010680;28;20022;-77
2023/09/30 09:06:32;;;;;;;29.38;12.63;;;;;;;14.69;100.00;102628.38;5030313;28;20075;-77
2023/09/30 09:09:22;;;;;;;27.30;12.93;;;;;;;14.79;100.00;102643.13;5019784;28;20019;-77
2023/09/30 09:11:48;;;;;;;23.80;13.30;;;;;;;14.81;100.00;102651.84;5013952;28;20022;-78
2023/09/30 09:14:14;;;;;;;27.83;11.63;;;;;;;14.87;100.00;102651.75;5016359;28;20513;-77
2023/09/30 09:16:59;;;;;;;20.90;11.00;;;;;;;14.99;100.00;102656.00;5014497;28;20037;-78
2023/09/30 09:19:25;;;;;;;24.05;10.60;;;;;;;15.03;100.00;102654.19;5013276;28;20041;-77
2023/09/30 09:22:01;;;;;;;19.10;10.07;;;;;;;15.05;100.00;102657.69;5009735;28;20034;-77
2023/09/30 09:24:31;;;;;;;19.55;10.38;;;;;;;15.09;100.00;102662.00;5012863;28;20053;-77
2023/09/30 09:27:16;;;;;;;18.13;9.70;;;;;;;15.15;100.00;102673.31;5000577;28;20061;-78
2023/09/30 09:29:44;;;;;;;19.67;10.15;;;;;;;15.14;100.00;102679.44;5010373;28;20033;-77
2023/09/30 09:32:11;;;;;;;22.63;10.90;;;;;;;15.20;100.00;102692.50;5018513;28;20086;-77
2023/09/30 09:34:37;;;;;;;17.25;9.40;;;;;;;15.27;100.00;102684.53;5032192;28;20046;-77
2023/09/30 09:37:19;;;;;;;17.40;9.68;;;;;;;15.37;100.00;102689.66;5023281;28;20030;-77
2023/09/30 09:39:56;;;;;;;17.75;10.63;;;;;;;15.48;100.00;102686.84;5015398;28;20476;-78
2023/09/30 09:42:32;;;;;;;18.45;10.05;;;;;;;15.53;100.00;102687.66;5009709;28;20034;-77
2023/09/30 09:45:00;;;;;;;21.48;10.90;;;;;;;15.61;100.00;102695.44;5002930;28;20029;-77
2023/09/30 09:47:26;;;;;;;19.20;9.93;;;;;;;15.61;100.00;102682.28;5000838;28;20473;-78
2023/09/30 09:49:52;;;;;;;18.48;10.55;;;;;;;15.67;100.00;102693.63;5009784;28;20022;-78
2023/09/30 09:52:19;;;;;;;20.50;9.98;;;;;;;15.77;100.00;102693.47;5030637;28;20109;-77
2023/09/30 09:54:46;;;;;;;16.27;10.15;;;;;;;15.85;100.00;102691.56;5045142;28;20025;-77
2023/09/30 09:57:12;;;;;;;12.10;7.97;;;;;;;15.96;100.00;102696.66;5030305;28;20030;-77
2023/09/30 09:59:42;;;;;;;16.38;8.85;;;;;;;16.02;100.00;102696.56;5019074;28;20052;-77
2023/09/30 10:02:14;;;;;;;12.93;9.07;;;;;;;16.06;100.00;102696.50;5013072;28;20030;-77
2023/09/30 10:04:46;;;;;;;15.90;7.53;;;;;;;16.07;100.00;102692.09;5032002;28;20109;-77
2023/09/30 10:07:34;;;;;;;14.98;7.57;;;;;;;16.14;100.00;102697.22;5024556;28;20023;-76
2023/09/30 10:10:02;;;;;;;13.30;8.13;;;;;;;16.13;100.00;102698.13;5015053;28;20017;-78
2023/09/30 10:12:28;;;;;;;16.70;8.07;;;;;;;16.15;100.00;102704.25;5035139;28;20026;-77
2023/09/30 10:14:53;;;;;;;16.63;8.10;;;;;;;16.17;100.00;102703.34;5013194;28;20029;-77
2023/09/30 10:17:19;;;;;;;14.50;9.00;;;;;;;16.20;100.00;102711.19;5018878;28;20419;-77
2023/09/30 10:20:09;;;;;;;16.35;8.32;;;;;;;16.34;100.00;102706.53;5050709;28;20022;-78
2023/09/30 10:22:35;;;;;;;14.38;8.13;;;;;;;16.50;100.00;102710.63;5007698;28;20132;-77
2023/09/30 10:25:21;;;;;;;12.52;8.77;;;;;;;16.69;100.00;102703.25;5009411;28;20071;-77
2023/09/30 10:27:47;;;;;;;15.73;8.57;;;;;;;16.87;100.00;102688.84;5023373;28;20366;-78
2023/09/30 10:30:13;;;;;;;16.70;8.98;;;;;;;17.05;100.00;102680.56;5022991;28;20049;-78
2023/09/30 10:32:51;;;;;;;13.63;8.02;;;;;;;17.32;100.00;102676.47;5026283;28;20033;-78
2023/09/30 10:35:17;;;;;;;13.25;6.88;;;;;;;17.40;100.00;102675.44;5013567;28;20026;-77
2023/09/30 10:37:43;;;;;;;13.52;6.82;;;;;;;17.45;100.00;102679.69;5039323;28;20037;-78
2023/09/30 10:40:25;;;;;;;8.43;6.10;;;;;;;17.52;100.00;102670.72;5017761;28;20059;-78
2023/09/30 10:42:51;;;;;;;14.77;7.00;;;;;;;17.63;100.00;102667.00;4997181;28;20420;-77
2023/09/30 10:45:38;;;;;;;10.45;6.47;;;;;;;17.68;100.00;102667.72;5040220;28;20029;-78
2023/09/30 10:48:25;;;;;;;10.43;5.78;;;;;;;17.74;100.00;102665.81;5017631;28;20021;-78
2023/09/30 10:50:51;;;;;;;11.18;6.28;;;;;;;17.82;100.00;102659.50;5034108;28;20076;-78
2023/09/30 10:53:18;;;;;;;10.20;6.30;;;;;;;17.91;100.00;102651.38;5055970;28;20473;-77
2023/09/30 10:55:45;;;;;;;9.82;5.95;;;;;;;18.14;100.00;102658.69;5036141;28;20032;-78
2023/09/30 10:58:11;;;;;;;13.23;7.53;;;;;;;18.23;100.00;102648.75;5049493;28;20078;-77
2023/09/30 11:00:38;;;;;;;11.98;6.13;;;;;;;18.46;100.00;102639.34;5009056;28;20467;-78
2023/09/30 11:03:05;;;;;;;12.32;7.20;;;;;;;18.61;100.00;102636.28;5053290;28;20024;-78